Time;durP1;ratioP1;P1;durP2;ratioP2;P2;SDS_P1;SDS_P2;PMS_P1;PMS_P2;Temp;Humidity;BMP_temperature;BMP_pressure;BME280_temperature;BME280_humidity;BME280_pressure;Samples;Min_cycle;Max_cycle;Signal;HPM_P1;HPM_P2
2022/05/28 00:00:20;;;;;;;;;;;23.60;93.30;;;;;;4856768;29;20380;-60
2022/05/28 00:02:48;;;;;;;;;;;23.60;93.30;;;;;;4863320;29;19939;-61
2022/05/28 00:05:15;;;;;;;;;;;23.60;93.30;;;;;;4872911;29;19928;-60
2022/05/28 00:07:42;;;;;;;;;;;23.60;93.30;;;;;;4875157;29;19962;-60
2022/05/28 00:10:11;;;;;;;;;;;23.60;93.30;;;;;;4873114;29;19955;-61
2022/05/28 00:12:38;;;;;;;;;;;23.60;93.50;;;;;;4865861;29;19943;-60
2022/05/28 00:15:06;;;;;;;;;;;23.60;93.30;;;;;;4871599;29;19931;-61
2022/05/28 00:17:33;;;;;;;;;;;23.60;93.20;;;;;;4874787;29;19951;-61
2022/05/28 00:20:00;;;;;;;;;;;23.60;93.00;;;;;;4877564;29;19955;-59
2022/05/28 00:22:28;;;;;;;;;;;23.60;93.20;;;;;;4880944;29;19942;-61
2022/05/28 00:24:56;;;;;;;;;;;23.60;93.20;;;;;;4876381;29;19936;-62
2022/05/28 00:27:23;;;;;;;;;;;23.60;93.20;;;;;;4879144;29;20331;-57
2022/05/28 00:29:51;;;;;;;;;;;23.60;93.20;;;;;;4875789;29;19931;-59
2022/05/28 00:32:18;;;;;;;;;;;23.60;93.30;;;;;;4877344;29;19932;-59
2022/05/28 00:34:45;;;;;;;;;;;23.60;93.40;;;;;;4864110;29;19948;-61
2022/05/28 00:37:13;;;;;;;;;;;23.60;93.40;;;;;;4871703;29;20399;-61
2022/05/28 00:39:40;;;;;;;;;;;23.60;93.40;;;;;;4867381;29;19928;-61
2022/05/28 00:42:07;;;;;;;;;;;23.60;93.40;;;;;;4868707;29;19928;-61
2022/05/28 00:44:34;;;;;;;;;;;23.60;93.40;;;;;;4861341;29;19942;-60
2022/05/28 00:47:02;;;;;;;;;;;23.60;93.40;;;;;;4870866;29;20607;-59
2022/05/28 00:49:30;;;;;;;;;;;23.50;93.40;;;;;;4869717;29;19939;-60
2022/05/28 00:51:59;;;;;;;;;;;23.50;93.40;;;;;;4869509;29;20031;-60
2022/05/28 00:54:29;;;;;;;;;;;23.50;93.40;;;;;;4867242;29;20404;-60
2022/05/28 00:56:57;;;;;;;;;;;23.50;93.40;;;;;;4862032;29;20403;-60
2022/05/28 00:59:24;;;;;;;;;;;23.50;93.40;;;;;;4865054;29;19936;-57
2022/05/28 01:01:54;;;;;;;;;;;23.50;93.40;;;;;;4871267;29;20277;-60
2022/05/28 01:04:26;;;;;;;;;;;23.50;93.40;;;;;;4871862;29;20392;-60
2022/05/28 01:06:59;;;;;;;;;;;23.50;93.40;;;;;;4859583;29;20424;-61
2022/05/28 01:09:38;;;;;;;;;;;23.50;93.40;;;;;;4871537;29;19936;-60
2022/05/28 01:12:13;;;;;;;;;;;23.50;93.40;;;;;;4866083;29;19932;-61
2022/05/28 01:14:51;;;;;;;;;;;23.50;93.40;;;;;;4863850;29;19928;-60
2022/05/28 01:17:21;;;;;;;;;;;23.40;93.40;;;;;;4868230;29;19931;-60
2022/05/28 01:19:53;;;;;;;;;;;23.40;93.40;;;;;;4861731;29;19928;-60
2022/05/28 01:22:33;;;;;;;;;;;23.40;93.40;;;;;;4866198;29;19955;-61
2022/05/28 01:25:17;;;;;;;;;;;23.40;93.40;;;;;;4868254;29;20412;-61
2022/05/28 01:28:05;;;;;;;;;;;23.40;93.40;;;;;;4850824;29;19936;-61
2022/05/28 01:30:32;;;;;;;;;;;23.50;93.40;;;;;;4866805;29;19951;-61
2022/05/28 01:33:01;;;;;;;;;;;23.40;93.60;;;;;;4864964;29;20344;-61
2022/05/28 01:35:30;;;;;;;;;;;23.40;93.60;;;;;;4867310;29;20264;-61
2022/05/28 01:37:58;;;;;;;;;;;23.40;93.70;;;;;;4871106;29;19928;-63
2022/05/28 01:40:26;;;;;;;;;;;23.40;93.80;;;;;;4856341;29;19940;-60
2022/05/28 01:42:54;;;;;;;;;;;23.40;93.70;;;;;;4855623;29;19936;-61
2022/05/28 01:45:22;;;;;;;;;;;23.40;93.70;;;;;;4866648;29;19943;-60
2022/05/28 01:47:50;;;;;;;;;;;23.40;93.60;;;;;;4873956;29;19939;-60
2022/05/28 01:50:20;;;;;;;;;;;23.40;93.60;;;;;;4867410;29;19938;-60
2022/05/28 01:52:47;;;;;;;;;;;23.40;93.60;;;;;;4855692;29;20621;-60
2022/05/28 01:55:16;;;;;;;;;;;23.40;93.60;;;;;;4868176;29;19957;-60
2022/05/28 01:57:43;;;;;;;;;;;23.40;93.60;;;;;;4868149;29;20376;-61
2022/05/28 02:00:11;;;;;;;;;;;23.40;93.60;;;;;;4869083;29;20309;-61
2022/05/28 02:02:38;;;;;;;;;;;23.40;93.60;;;;;;4872136;29;20288;-61
2022/05/28 02:05:06;;;;;;;;;;;23.40;93.60;;;;;;4870441;29;19927;-60
2022/05/28 02:07:33;;;;;;;;;;;23.30;93.70;;;;;;4852355;29;19931;-60
2022/05/28 02:10:03;;;;;;;;;;;23.30;93.60;;;;;;4870205;29;19932;-60
2022/05/28 02:12:30;;;;;;;;;;;23.30;93.70;;;;;;4868245;29;19939;-61
2022/05/28 02:14:58;;;;;;;;;;;23.30;93.70;;;;;;4867971;29;19939;-61
2022/05/28 02:17:46;;;;;;;;;;;23.30;93.80;;;;;;4868477;29;20244;-61
2022/05/28 02:20:24;;;;;;;;;;;23.30;93.80;;;;;;4848097;29;19928;-60
2022/05/28 02:23:16;;;;;;;;;;;23.30;93.80;;;;;;4866494;29;20376;-61
2022/05/28 02:25:45;;;;;;;;;;;23.30;93.80;;;;;;4867531;29;19992;-61
2022/05/28 02:28:14;;;;;;;;;;;23.20;93.80;;;;;;4866245;29;19932;-61
2022/05/28 02:30:50;;;;;;;;;;;23.30;93.80;;;;;;4869722;29;19942;-59
2022/05/28 02:33:18;;;;;;;;;;;23.20;93.80;;;;;;4867392;29;20336;-60
2022/05/28 02:35:45;;;;;;;;;;;23.30;93.80;;;;;;4872585;29;19935;-60
2022/05/28 02:38:13;;;;;;;;;;;23.30;93.80;;;;;;4861178;29;19936;-60
2022/05/28 02:40:41;;;;;;;;;;;23.30;93.80;;;;;;4868297;29;19932;-59
2022/05/28 02:43:08;;;;;;;;;;;23.30;93.90;;;;;;4867315;29;19932;-60
2022/05/28 02:45:35;;;;;;;;;;;23.20;94.00;;;;;;4869229;29;19932;-60
2022/05/28 02:48:02;;;;;;;;;;;23.20;94.10;;;;;;4868221;29;19939;-61
2022/05/28 02:50:29;;;;;;;;;;;23.20;94.20;;;;;;4871568;29;19939;-61
2022/05/28 02:52:56;;;;;;;;;;;23.20;94.30;;;;;;4871122;29;19936;-58
2022/05/28 02:55:23;;;;;;;;;;;23.20;94.40;;;;;;4874555;29;19935;-60
2022/05/28 02:57:50;;;;;;;;;;;23.20;94.50;;;;;;4872429;29;19935;-58
2022/05/28 03:00:18;;;;;;;;;;;23.20;94.60;;;;;;4871683;29;19931;-59
2022/05/28 03:02:45;;;;;;;;;;;23.20;94.70;;;;;;4869116;29;19946;-58
2022/05/28 03:05:13;;;;;;;;;;;23.20;94.70;;;;;;4870800;29;19935;-61
2022/05/28 03:07:41;;;;;;;;;;;23.10;94.70;;;;;;4874143;29;19939;-59
2022/05/28 03:10:09;;;;;;;;;;;23.10;94.80;;;;;;4870035;29;19939;-61
2022/05/28 03:12:36;;;;;;;;;;;23.10;94.70;;;;;;4864989;29;19932;-58
2022/05/28 03:15:03;;;;;;;;;;;23.10;94.70;;;;;;4871277;29;19931;-60
2022/05/28 03:17:30;;;;;;;;;;;23.10;94.70;;;;;;4856420;29;19948;-60
2022/05/28 03:20:01;;;;;;;;;;;23.10;94.50;;;;;;4851028;29;19932;-59
2022/05/28 03:22:28;;;;;;;;;;;23.10;94.50;;;;;;4865734;29;19932;-61
2022/05/28 03:24:55;;;;;;;;;;;23.20;94.40;;;;;;4866834;29;19929;-59
2022/05/28 03:27:22;;;;;;;;;;;23.10;94.40;;;;;;4856207;29;20419;-61
2022/05/28 03:29:50;;;;;;;;;;;23.20;94.40;;;;;;4856574;29;19932;-59
2022/05/28 03:32:17;;;;;;;;;;;23.10;94.40;;;;;;4874229;29;19951;-59
2022/05/28 03:34:44;;;;;;;;;;;23.10;94.30;;;;;;4862787;29;20334;-61
2022/05/28 03:37:11;;;;;;;;;;;23.10;94.40;;;;;;4870379;29;19951;-59
2022/05/28 03:39:38;;;;;;;;;;;23.10;94.30;;;;;;4866783;29;19928;-61
2022/05/28 03:42:05;;;;;;;;;;;23.10;94.30;;;;;;4872621;29;19928;-61
2022/05/28 03:44:32;;;;;;;;;;;23.10;94.30;;;;;;4873726;29;19931;-60
2022/05/28 03:47:00;;;;;;;;;;;23.10;94.30;;;;;;4865006;29;20317;-60
2022/05/28 03:49:29;;;;;;;;;;;23.10;94.30;;;;;;4871745;29;20392;-60
2022/05/28 03:51:56;;;;;;;;;;;23.10;94.30;;;;;;4867558;29;19936;-57
2022/05/28 03:54:23;;;;;;;;;;;23.10;94.20;;;;;;4865595;29;19939;-60
2022/05/28 03:56:53;;;;;;;;;;;23.00;94.30;;;;;;4874162;29;19934;-61
2022/05/28 03:59:20;;;;;;;;;;;23.10;94.20;;;;;;4869083;29;19935;-61
2022/05/28 04:01:47;;;;;;;;;;;23.10;94.20;;;;;;4870413;29;19932;-61
2022/05/28 04:04:15;;;;;;;;;;;23.10;94.20;;;;;;4870220;29;19934;-61
2022/05/28 04:06:42;;;;;;;;;;;23.10;94.20;;;;;;4857520;29;19931;-60
2022/05/28 04:09:09;;;;;;;;;;;23.10;94.20;;;;;;4868994;29;19932;-62
2022/05/28 04:11:36;;;;;;;;;;;23.10;94.20;;;;;;4869848;29;19936;-61
2022/05/28 04:14:04;;;;;;;;;;;22.60;83.30;;;;;;4866289;29;19932;-62
2022/05/28 04:16:34;;;;;;;;;;;22.10;82.20;;;;;;4857151;29;19932;-61
2022/05/28 04:19:01;;;;;;;;;;;21.70;80.40;;;;;;4873061;29;19928;-60
2022/05/28 04:21:28;;;;;;;;;;;21.40;76.70;;;;;;4881374;29;19943;-59
2022/05/28 04:23:55;;;;;;;;;;;21.10;78.30;;;;;;4878112;29;19928;-62
2022/05/28 04:26:22;;;;;;;;;;;21.00;77.70;;;;;;4874373;29;19948;-59
2022/05/28 04:28:49;;;;;;;;;;;20.90;76.70;;;;;;4871289;29;19936;-60
2022/05/28 04:31:16;;;;;;;;;;;21.20;85.50;;;;;;4873937;29;20311;-57
2022/05/28 04:33:44;;;;;;;;;;;21.70;83.90;;;;;;4871730;29;19943;-61
2022/05/28 04:36:11;;;;;;;;;;;22.00;83.10;;;;;;4853101;29;19936;-60
2022/05/28 04:38:38;;;;;;;;;;;22.30;82.80;;;;;;4868600;29;19938;-61
2022/05/28 04:41:05;;;;;;;;;;;22.40;83.00;;;;;;4868512;29;19943;-62
2022/05/28 04:43:33;;;;;;;;;;;22.50;83.40;;;;;;4867429;29;19954;-58
2022/05/28 04:46:00;;;;;;;;;;;22.60;84.20;;;;;;4868310;29;20384;-58
2022/05/28 04:48:27;;;;;;;;;;;22.60;85.20;;;;;;4872240;29;20327;-58
2022/05/28 04:50:54;;;;;;;;;;;22.70;87.90;;;;;;4861964;29;19932;-59
2022/05/28 04:53:21;;;;;;;;;;;22.80;90.20;;;;;;4864862;29;19935;-67
2022/05/28 04:55:49;;;;;;;;;;;22.90;90.50;;;;;;4870224;29;20318;-66
2022/05/28 04:58:16;;;;;;;;;;;23.00;91.40;;;;;;4868389;29;19928;-65
2022/05/28 05:00:44;;;;;;;;;;;23.10;91.60;;;;;;4868313;29;19954;-68
2022/05/28 05:03:12;;;;;;;;;;;23.10;91.90;;;;;;4866222;29;19956;-66
2022/05/28 05:05:39;;;;;;;;;;;23.20;92.20;;;;;;4852832;29;19939;-63
2022/05/28 05:08:06;;;;;;;;;;;23.20;92.20;;;;;;4867010;29;19976;-66
2022/05/28 05:10:33;;;;;;;;;;;23.20;92.20;;;;;;4870163;29;19935;-65
2022/05/28 05:13:00;;;;;;;;;;;23.20;92.70;;;;;;4853874;29;19935;-65
2022/05/28 05:15:28;;;;;;;;;;;23.20;92.60;;;;;;4870119;29;20343;-67
2022/05/28 05:17:55;;;;;;;;;;;23.20;92.70;;;;;;4854857;29;19928;-67
2022/05/28 05:20:22;;;;;;;;;;;23.10;92.60;;;;;;4859114;29;19932;-66
2022/05/28 05:22:53;;;;;;;;;;;23.10;92.70;;;;;;4871577;29;20043;-66
2022/05/28 05:25:20;;;;;;;;;;;23.10;92.80;;;;;;4874565;29;19932;-68
2022/05/28 05:27:48;;;;;;;;;;;23.10;93.00;;;;;;4872003;29;19943;-70
2022/05/28 05:30:15;;;;;;;;;;;23.10;93.10;;;;;;4871610;29;19927;-67
2022/05/28 05:32:42;;;;;;;;;;;23.10;93.20;;;;;;4871132;29;19932;-67
2022/05/28 05:35:09;;;;;;;;;;;23.10;93.30;;;;;;4871435;29;19944;-67
2022/05/28 05:37:37;;;;;;;;;;;23.10;93.40;;;;;;4856659;29;19928;-67
2022/05/28 05:40:04;;;;;;;;;;;23.10;93.40;;;;;;4855895;29;19936;-67
2022/05/28 05:42:31;;;;;;;;;;;23.10;93.30;;;;;;4868607;29;20214;-67
2022/05/28 05:44:59;;;;;;;;;;;23.00;93.30;;;;;;4872783;29;19931;-66
2022/05/28 05:47:26;;;;;;;;;;;23.00;93.50;;;;;;4872621;29;19939;-67
2022/05/28 05:49:53;;;;;;;;;;;23.00;93.50;;;;;;4864220;29;20285;-66
2022/05/28 05:52:20;;;;;;;;;;;23.00;93.60;;;;;;4861431;29;20385;-65
2022/05/28 05:54:51;;;;;;;;;;;23.00;93.60;;;;;;4865738;29;20327;-66
2022/05/28 05:57:18;;;;;;;;;;;23.00;93.40;;;;;;4849553;29;19936;-67
2022/05/28 05:59:45;;;;;;;;;;;23.00;93.30;;;;;;4869534;29;19928;-64
2022/05/28 06:02:12;;;;;;;;;;;22.90;93.20;;;;;;4870785;29;19936;-67
2022/05/28 06:04:40;;;;;;;;;;;23.00;93.10;;;;;;4870113;29;19934;-65
2022/05/28 06:07:07;;;;;;;;;;;23.00;93.00;;;;;;4871462;29;19927;-66
2022/05/28 06:09:34;;;;;;;;;;;23.00;93.10;;;;;;4853320;29;19939;-66
2022/05/28 06:12:02;;;;;;;;;;;23.00;93.10;;;;;;4866706;29;20328;-65
2022/05/28 06:14:29;;;;;;;;;;;23.00;92.80;;;;;;4865065;29;19932;-67
2022/05/28 06:16:56;;;;;;;;;;;23.00;92.80;;;;;;4869719;29;19939;-65
2022/05/28 06:19:23;;;;;;;;;;;23.00;93.00;;;;;;4871126;29;19935;-66
2022/05/28 06:21:50;;;;;;;;;;;23.00;92.80;;;;;;4864545;29;19931;-66
2022/05/28 06:24:18;;;;;;;;;;;23.00;93.00;;;;;;4870177;29;20312;-71
2022/05/28 06:26:45;;;;;;;;;;;22.90;92.90;;;;;;4870497;29;19935;-66
2022/05/28 06:29:12;;;;;;;;;;;22.90;92.70;;;;;;4876956;29;19932;-65
2022/05/28 06:31:39;;;;;;;;;;;22.80;91.90;;;;;;4869376;29;19939;-61
2022/05/28 06:34:06;;;;;;;;;;;22.70;90.80;;;;;;4872252;29;19931;-59
2022/05/28 06:36:33;;;;;;;;;;;22.70;88.20;;;;;;4874440;29;19931;-61
2022/05/28 06:39:00;;;;;;;;;;;22.70;88.50;;;;;;4877332;29;19928;-62
2022/05/28 06:41:28;;;;;;;;;;;22.70;86.60;;;;;;4877471;29;20419;-60
2022/05/28 06:43:55;;;;;;;;;;;22.70;86.70;;;;;;4871577;29;19939;-66
2022/05/28 06:46:22;;;;;;;;;;;22.80;87.10;;;;;;4857950;29;19932;-62
2022/05/28 06:48:49;;;;;;;;;;;22.80;87.30;;;;;;4856917;29;20427;-62
2022/05/28 06:51:16;;;;;;;;;;;22.80;87.60;;;;;;4872230;29;19932;-61
2022/05/28 06:53:46;;;;;;;;;;;22.90;87.70;;;;;;4864783;29;19932;-63
2022/05/28 06:56:13;;;;;;;;;;;22.90;88.20;;;;;;4869088;29;19939;-60
2022/05/28 06:58:43;;;;;;;;;;;22.90;89.20;;;;;;4871689;29;19932;-60
2022/05/28 07:01:11;;;;;;;;;;;22.80;89.10;;;;;;4872844;29;19932;-61
2022/05/28 07:03:39;;;;;;;;;;;22.80;89.40;;;;;;4875994;29;20321;-61
2022/05/28 07:06:07;;;;;;;;;;;22.80;89.80;;;;;;4874634;29;19935;-61
2022/05/28 07:08:34;;;;;;;;;;;22.80;90.00;;;;;;4873203;29;19942;-60
2022/05/28 07:11:05;;;;;;;;;;;22.80;90.20;;;;;;4866657;29;19931;-59
2022/05/28 07:13:32;;;;;;;;;;;22.80;90.30;;;;;;4867795;29;19932;-61
2022/05/28 07:15:59;;;;;;;;;;;22.80;91.70;;;;;;4857371;29;19939;-56
2022/05/28 07:18:27;;;;;;;;;;;22.80;92.00;;;;;;4872476;29;19946;-60
2022/05/28 07:20:56;;;;;;;;;;;22.80;92.40;;;;;;4870289;29;20133;-59
2022/05/28 07:23:28;;;;;;;;;;;22.80;92.70;;;;;;4855787;29;19935;-59
2022/05/28 07:26:02;;;;;;;;;;;22.80;92.90;;;;;;4874118;29;19976;-61
2022/05/28 07:28:33;;;;;;;;;;;22.80;93.00;;;;;;4875299;29;19934;-62
2022/05/28 07:31:02;;;;;;;;;;;22.80;93.00;;;;;;4871621;29;20400;-61
2022/05/28 07:33:30;;;;;;;;;;;22.80;93.40;;;;;;4869698;29;19991;-61
2022/05/28 07:35:58;;;;;;;;;;;22.80;93.80;;;;;;4873153;29;19939;-60
2022/05/28 07:38:26;;;;;;;;;;;22.80;94.10;;;;;;4861114;29;20617;-61
2022/05/28 07:40:54;;;;;;;;;;;22.90;94.40;;;;;;4873095;29;19938;-60
2022/05/28 07:43:21;;;;;;;;;;;22.90;94.70;;;;;;4855874;29;19959;-64
2022/05/28 07:45:49;;;;;;;;;;;22.90;95.00;;;;;;4877691;29;20324;-61
2022/05/28 07:48:17;;;;;;;;;;;22.90;95.00;;;;;;4859675;29;19955;-65
2022/05/28 07:50:44;;;;;;;;;;;22.90;94.90;;;;;;4878661;29;19932;-61
2022/05/28 07:53:12;;;;;;;;;;;22.90;95.00;;;;;;4858935;29;19931;-63
2022/05/28 07:55:40;;;;;;;;;;;22.90;96.00;;;;;;4863282;29;19943;-62
2022/05/28 07:58:08;;;;;;;;;;;23.00;96.70;;;;;;4872354;29;19939;-63
2022/05/28 08:00:37;;;;;;;;;;;22.90;97.00;;;;;;4872047;29;19927;-62
2022/05/28 08:03:04;;;;;;;;;;;23.00;97.50;;;;;;4871819;29;19935;-63
2022/05/28 08:05:31;;;;;;;;;;;22.90;97.60;;;;;;4860610;29;19940;-61
2022/05/28 08:07:59;;;;;;;;;;;22.90;97.50;;;;;;4844176;29;19943;-61
2022/05/28 08:10:30;;;;;;;;;;;22.90;97.70;;;;;;4876111;29;19931;-62
2022/05/28 08:13:04;;;;;;;;;;;22.90;97.80;;;;;;4873157;29;20253;-62
2022/05/28 08:15:33;;;;;;;;;;;22.90;97.80;;;;;;4868198;29;19955;-64
2022/05/28 08:18:00;;;;;;;;;;;22.90;97.70;;;;;;4875369;29;19927;-63
2022/05/28 08:23:13;;;;;;;;;;;22.80;97.60;;;;;;4869204;29;19931;-61
2022/05/28 08:25:41;;;;;;;;;;;22.80;97.30;;;;;;4856324;29;19932;-61
2022/05/28 08:28:09;;;;;;;;;;;22.70;96.50;;;;;;4871094;29;19932;-61
2022/05/28 08:30:37;;;;;;;;;;;22.60;95.20;;;;;;4879365;29;19928;-63
2022/05/28 08:33:05;;;;;;;;;;;22.60;94.00;;;;;;4873344;29;19932;-62
2022/05/28 08:35:33;;;;;;;;;;;22.50;93.40;;;;;;4865695;29;19940;-62
2022/05/28 08:38:10;;;;;;;;;;;22.60;92.60;;;;;;4864973;29;19980;-64
2022/05/28 08:40:49;;;;;;;;;;;22.60;92.40;;;;;;4864966;29;19932;-63
2022/05/28 08:43:18;;;;;;;;;;;22.60;92.20;;;;;;4884874;29;19928;-65
2022/05/28 08:45:49;;;;;;;;;;;22.70;91.50;;;;;;4878548;29;19935;-65
2022/05/28 08:48:20;;;;;;;;;;;22.60;91.40;;;;;;4855648;29;19939;-62
2022/05/28 08:50:52;;;;;;;;;;;22.70;91.40;;;;;;4872000;29;19939;-63
2022/05/28 08:53:22;;;;;;;;;;;22.80;91.40;;;;;;4869474;29;20407;-60
2022/05/28 08:55:50;;;;;;;;;;;22.80;90.60;;;;;;4860792;29;19931;-60
2022/05/28 08:58:19;;;;;;;;;;;22.80;91.20;;;;;;4858668;29;19932;-64
2022/05/28 09:00:46;;;;;;;;;;;22.80;91.40;;;;;;4871331;29;19932;-63
2022/05/28 09:03:14;;;;;;;;;;;22.90;91.60;;;;;;4855770;29;19975;-61
2022/05/28 09:05:47;;;;;;;;;;;22.90;92.20;;;;;;4857005;29;19932;-66
2022/05/28 09:08:20;;;;;;;;;;;22.90;92.40;;;;;;4868395;29;19962;-63
2022/05/28 09:10:49;;;;;;;;;;;23.00;92.40;;;;;;4869518;29;19932;-60
2022/05/28 09:13:19;;;;;;;;;;;22.90;92.50;;;;;;4872145;29;19928;-62
2022/05/28 09:15:46;;;;;;;;;;;23.00;92.50;;;;;;4854584;29;19928;-62
2022/05/28 09:18:14;;;;;;;;;;;23.00;92.70;;;;;;4870557;29;20288;-61
2022/05/28 09:20:44;;;;;;;;;;;23.00;93.60;;;;;;4872766;29;19931;-61
2022/05/28 09:23:11;;;;;;;;;;;23.00;93.50;;;;;;4872019;29;19991;-63
2022/05/28 09:25:43;;;;;;;;;;;22.90;93.10;;;;;;4869265;29;20045;-64
2022/05/28 09:28:33;;;;;;;;;;;22.90;92.70;;;;;;4873057;29;19946;-64
2022/05/28 09:31:00;;;;;;;;;;;22.90;92.20;;;;;;4855531;29;19935;-65
2022/05/28 09:33:37;;;;;;;;;;;22.90;91.10;;;;;;4867656;29;19966;-64
2022/05/28 09:36:10;;;;;;;;;;;22.80;91.40;;;;;;4869276;29;19932;-58
2022/05/28 09:38:48;;;;;;;;;;;22.90;91.40;;;;;;4850682;29;19939;-63
2022/05/28 09:41:21;;;;;;;;;;;22.90;91.40;;;;;;4870366;29;19927;-64
2022/05/28 09:43:59;;;;;;;;;;;22.90;91.40;;;;;;4856352;29;19939;-61
2022/05/28 09:46:27;;;;;;;;;;;23.00;91.50;;;;;;4873125;29;19950;-61
2022/05/28 09:49:05;;;;;;;;;;;23.00;91.50;;;;;;4871120;29;20426;-61
2022/05/28 09:51:33;;;;;;;;;;;23.00;91.60;;;;;;4875653;29;19947;-63
2022/05/28 09:54:17;;;;;;;;;;;23.00;91.70;;;;;;4854510;29;19932;-64
2022/05/28 09:56:47;;;;;;;;;;;23.00;91.80;;;;;;4869890;29;19935;-62
2022/05/28 09:59:17;;;;;;;;;;;23.00;92.00;;;;;;4873747;29;19932;-62
2022/05/28 10:01:51;;;;;;;;;;;23.00;92.00;;;;;;4866186;29;19936;-64
2022/05/28 10:04:31;;;;;;;;;;;23.00;91.90;;;;;;4870894;29;20030;-63
2022/05/28 10:07:02;;;;;;;;;;;23.00;92.00;;;;;;4869008;29;19948;-63
2022/05/28 10:09:31;;;;;;;;;;;23.00;92.40;;;;;;4861805;29;20851;-64
2022/05/28 10:12:00;;;;;;;;;;;23.00;92.50;;;;;;4869369;29;19928;-59
2022/05/28 10:14:29;;;;;;;;;;;23.00;92.60;;;;;;4871862;29;19932;-63
2022/05/28 10:16:59;;;;;;;;;;;23.00;92.80;;;;;;4851847;29;19932;-64
2022/05/28 10:19:40;;;;;;;;;;;23.00;92.40;;;;;;4870612;29;19933;-61
2022/05/28 10:22:17;;;;;;;;;;;23.00;92.30;;;;;;4867981;29;19935;-62
2022/05/28 10:24:47;;;;;;;;;;;23.00;92.30;;;;;;4869050;29;19947;-61
2022/05/28 10:27:27;;;;;;;;;;;23.00;92.60;;;;;;4868206;29;19932;-62
2022/05/28 10:29:57;;;;;;;;;;;23.00;92.30;;;;;;4856162;29;20326;-63
2022/05/28 10:32:30;;;;;;;;;;;23.00;92.50;;;;;;4850833;29;19932;-62
2022/05/28 10:34:59;;;;;;;;;;;23.00;92.50;;;;;;4853583;29;19932;-60
2022/05/28 10:37:26;;;;;;;;;;;23.00;92.50;;;;;;4871544;29;20367;-62
2022/05/28 10:40:08;;;;;;;;;;;22.90;92.50;;;;;;4866538;29;19939;-63
2022/05/28 10:42:37;;;;;;;;;;;22.90;92.60;;;;;;4850594;29;19951;-64
2022/05/28 10:45:07;;;;;;;;;;;23.00;92.60;;;;;;4836421;29;19943;-64
2022/05/28 10:47:43;;;;;;;;;;;23.00;92.90;;;;;;4864873;29;19927;-60
2022/05/28 10:50:13;;;;;;;;;;;23.00;93.00;;;;;;4868048;29;19952;-57
2022/05/28 10:52:58;;;;;;;;;;;23.00;93.20;;;;;;4853663;29;19936;-59
2022/05/28 10:55:37;;;;;;;;;;;23.00;93.40;;;;;;4870646;29;20000;-63
2022/05/28 10:58:23;;;;;;;;;;;23.00;93.70;;;;;;4847963;29;19962;-59
2022/05/28 11:01:02;;;;;;;;;;;23.00;93.90;;;;;;4863981;29;19983;-61
2022/05/28 11:03:46;;;;;;;;;;;23.00;94.00;;;;;;4866054;29;19932;-63
2022/05/28 11:06:16;;;;;;;;;;;23.00;94.20;;;;;;4868583;29;19939;-59
2022/05/28 11:09:08;;;;;;;;;;;23.00;94.40;;;;;;4855384;29;19939;-61
2022/05/28 11:11:39;;;;;;;;;;;23.10;94.40;;;;;;4866710;29;19927;-61
2022/05/28 11:14:14;;;;;;;;;;;23.10;94.50;;;;;;4869068;29;19931;-61
2022/05/28 11:16:50;;;;;;;;;;;23.00;94.60;;;;;;4868563;29;19936;-58
2022/05/28 11:19:36;;;;;;;;;;;23.10;94.80;;;;;;4872050;29;19939;-60
2022/05/28 11:22:06;;;;;;;;;;;23.10;94.80;;;;;;4871822;29;19931;-62
2022/05/28 11:24:34;;;;;;;;;;;23.00;94.70;;;;;;4866902;29;20052;-65
2022/05/28 11:27:11;;;;;;;;;;;23.00;94.70;;;;;;4853965;29;19936;-58
2022/05/28 11:29:46;;;;;;;;;;;23.00;94.80;;;;;;4868561;29;19932;-61
2022/05/28 11:32:18;;;;;;;;;;;23.00;94.60;;;;;;4873631;29;19939;-58
2022/05/28 11:35:08;;;;;;;;;;;23.00;94.20;;;;;;4859578;29;19932;-58
2022/05/28 11:37:42;;;;;;;;;;;23.00;93.40;;;;;;4863241;29;19927;-62
2022/05/28 11:40:18;;;;;;;;;;;23.00;93.00;;;;;;4846030;29;19931;-60
2022/05/28 11:42:49;;;;;;;;;;;23.00;93.10;;;;;;4866543;29;19928;-55
2022/05/28 11:45:20;;;;;;;;;;;22.90;93.30;;;;;;4859632;29;19932;-60
2022/05/28 11:47:52;;;;;;;;;;;23.00;93.30;;;;;;4858400;29;19932;-60
2022/05/28 11:53:12;;;;;;;;;;;22.90;93.30;;;;;;4873306;29;19932;-63
2022/05/28 11:55:41;;;;;;;;;;;22.90;93.40;;;;;;4858167;29;19950;-61
2022/05/28 11:58:16;;;;;;;;;;;22.90;93.40;;;;;;4868450;29;19931;-60
2022/05/28 12:00:48;;;;;;;;;;;22.90;93.40;;;;;;4869045;29;19928;-62
2022/05/28 12:03:17;;;;;;;;;;;22.90;93.40;;;;;;4865117;29;19966;-60
2022/05/28 12:05:56;;;;;;;;;;;22.90;93.40;;;;;;4856772;29;19932;-55
2022/05/28 12:08:36;;;;;;;;;;;22.90;93.40;;;;;;4871211;29;19932;-61
2022/05/28 12:11:27;;;;;;;;;;;22.90;93.30;;;;;;4870503;29;19998;-63
2022/05/28 12:13:56;;;;;;;;;;;22.90;93.30;;;;;;4823102;29;19932;-61
2022/05/28 12:16:40;;;;;;;;;;;22.90;93.30;;;;;;4873621;29;19932;-58
2022/05/28 12:19:10;;;;;;;;;;;22.90;93.20;;;;;;4873892;29;19996;-61
2022/05/28 12:21:39;;;;;;;;;;;22.90;93.20;;;;;;4866190;29;19942;-61
2022/05/28 12:24:09;;;;;;;;;;;22.90;93.40;;;;;;4866398;29;19928;-60
2022/05/28 12:29:25;;;;;;;;;;;22.90;93.10;;;;;;4858282;29;20397;-57
2022/05/28 12:31:52;;;;;;;;;;;22.90;93.10;;;;;;4859361;29;19936;-60
2022/05/28 12:34:24;;;;;;;;;;;22.90;93.10;;;;;;4849584;29;19929;-60
2022/05/28 12:36:54;;;;;;;;;;;22.90;93.10;;;;;;4861804;29;19932;-61
2022/05/28 12:39:21;;;;;;;;;;;22.90;93.10;;;;;;4864412;29;19935;-62
2022/05/28 12:41:58;;;;;;;;;;;22.90;93.10;;;;;;4871013;29;20366;-63
2022/05/28 12:44:26;;;;;;;;;;;22.90;93.10;;;;;;4866172;29;19932;-64
2022/05/28 12:46:59;;;;;;;;;;;22.90;93.10;;;;;;4876789;29;19931;-62
2022/05/28 12:49:28;;;;;;;;;;;22.90;93.10;;;;;;4860384;29;19956;-61
2022/05/28 12:51:55;;;;;;;;;;;22.90;93.20;;;;;;4865423;29;20392;-60
2022/05/28 12:54:27;;;;;;;;;;;22.90;93.10;;;;;;4854376;29;19932;-59
2022/05/28 12:57:19;;;;;;;;;;;22.90;92.60;;;;;;4857841;29;19963;-60
2022/05/28 12:59:57;;;;;;;;;;;22.90;92.40;;;;;;4868258;29;19932;-59
2022/05/28 13:02:26;;;;;;;;;;;22.90;92.00;;;;;;4864322;29;19927;-60
2022/05/28 13:05:03;;;;;;;;;;;22.80;91.50;;;;;;4869799;29;19935;-56
2022/05/28 13:07:35;;;;;;;;;;;22.70;83.20;;;;;;4860676;29;19928;-62
2022/05/28 13:10:14;;;;;;;;;;;22.30;77.20;;;;;;4866225;29;19942;-62
2022/05/28 13:13:00;;;;;;;;;;;22.20;77.30;;;;;;4865715;29;19934;-59
2022/05/28 13:15:33;;;;;;;;;;;22.10;78.00;;;;;;4870415;29;19936;-61
2022/05/28 13:18:09;;;;;;;;;;;22.20;78.80;;;;;;4865214;29;19946;-61
2022/05/28 13:20:36;;;;;;;;;;;22.30;76.80;;;;;;4862238;29;19928;-60
2022/05/28 13:23:22;;;;;;;;;;;22.40;77.10;;;;;;4872259;29;19932;-55
2022/05/28 13:25:55;;;;;;;;;;;22.50;76.30;;;;;;4866746;29;19928;-59
2022/05/28 13:28:33;;;;;;;;;;;22.50;76.40;;;;;;4871771;29;19932;-56
2022/05/28 13:31:03;;;;;;;;;;;22.40;75.90;;;;;;4870181;29;19935;-57
2022/05/28 13:33:37;;;;;;;;;;;22.40;76.00;;;;;;4870957;29;19934;-56
2022/05/28 13:36:05;;;;;;;;;;;22.60;76.20;;;;;;4867498;29;19942;-57
2022/05/28 13:38:38;;;;;;;;;;;22.70;76.10;;;;;;4867653;29;19936;-59
2022/05/28 13:41:13;;;;;;;;;;;22.90;75.30;;;;;;4869683;29;19936;-59
2022/05/28 13:43:43;;;;;;;;;;;23.00;75.20;;;;;;4867679;29;19954;-63
2022/05/28 13:46:11;;;;;;;;;;;23.00;75.30;;;;;;4875714;29;20211;-57
2022/05/28 13:48:40;;;;;;;;;;;23.10;75.50;;;;;;4874134;29;20213;-61
2022/05/28 13:51:09;;;;;;;;;;;23.20;75.90;;;;;;4872621;29;19932;-60
2022/05/28 13:53:38;;;;;;;;;;;23.30;76.10;;;;;;4870320;29;19935;-58
2022/05/28 13:56:07;;;;;;;;;;;23.30;76.50;;;;;;4870743;29;19954;-58
2022/05/28 13:58:39;;;;;;;;;;;23.40;76.90;;;;;;4873642;29;19938;-60
2022/05/28 14:01:09;;;;;;;;;;;23.40;76.80;;;;;;4874945;29;19931;-58
2022/05/28 14:03:42;;;;;;;;;;;23.40;76.70;;;;;;4871942;29;19932;-59
2022/05/28 14:06:14;;;;;;;;;;;23.40;76.40;;;;;;4870910;29;19938;-62
2022/05/28 14:08:44;;;;;;;;;;;23.50;75.70;;;;;;4871968;29;19939;-55
2022/05/28 14:11:11;;;;;;;;;;;23.60;75.60;;;;;;4869315;29;19931;-62
2022/05/28 14:13:43;;;;;;;;;;;23.60;74.70;;;;;;4862934;29;19943;-58
2022/05/28 14:16:33;;;;;;;;;;;23.60;74.90;;;;;;4874146;29;19932;-56
2022/05/28 14:19:01;;;;;;;;;;;23.50;74.10;;;;;;4869910;29;20404;-57
2022/05/28 14:21:33;;;;;;;;;;;23.50;73.40;;;;;;4872546;29;20658;-56
2022/05/28 14:24:11;;;;;;;;;;;23.60;72.90;;;;;;4865714;29;19935;-60
2022/05/28 14:26:39;;;;;;;;;;;23.70;72.70;;;;;;4872990;29;19938;-58
2022/05/28 14:29:06;;;;;;;;;;;23.80;72.80;;;;;;4862568;29;19927;-60
2022/05/28 14:31:34;;;;;;;;;;;23.80;72.00;;;;;;4883921;29;19933;-56
2022/05/28 14:34:01;;;;;;;;;;;23.90;72.40;;;;;;4861356;29;19943;-61
2022/05/28 14:36:33;;;;;;;;;;;24.00;73.00;;;;;;4871286;29;19932;-59
2022/05/28 14:39:16;;;;;;;;;;;24.00;73.80;;;;;;4851841;29;19928;-59
2022/05/28 14:41:46;;;;;;;;;;;24.10;74.60;;;;;;4870767;29;20292;-59